createdAt,value
2023-06-15T00:01:02.182Z,91.70
2023-06-15T00:03:29.374Z,91.80
2023-06-15T00:05:56.874Z,91.90
2023-06-15T00:08:24.076Z,92.00
2023-06-15T00:10:51.204Z,92.10
2023-06-15T00:13:18.569Z,92.20
2023-06-15T00:15:45.705Z,92.20
2023-06-15T00:18:13.559Z,92.30
2023-06-15T00:20:40.969Z,92.40
2023-06-15T00:23:09.870Z,92.30
2023-06-15T00:25:37.958Z,92.30
2023-06-15T00:28:05.617Z,92.30
2023-06-15T00:30:32.847Z,92.20
2023-06-15T00:33:00.157Z,92.20
2023-06-15T00:35:27.379Z,92.00
2023-06-15T00:37:55.906Z,92.00
2023-06-15T00:40:22.947Z,92.00
2023-06-15T00:42:50.080Z,92.10
2023-06-15T00:45:17.464Z,92.10
2023-06-15T00:47:47.359Z,92.10
2023-06-15T00:50:19.519Z,92.10
2023-06-15T00:52:50.204Z,92.00
2023-06-15T00:55:17.789Z,91.90
2023-06-15T00:57:50.667Z,91.70
2023-06-15T01:00:19.285Z,91.60
2023-06-15T01:02:50.218Z,91.60
2023-06-15T01:05:19.058Z,91.60
2023-06-15T01:07:48.698Z,91.60
2023-06-15T01:10:18.064Z,91.60
2023-06-15T01:12:47.122Z,91.60
2023-06-15T01:15:15.044Z,91.60
2023-06-15T01:17:46.162Z,91.60
2023-06-15T01:20:27.905Z,91.70
2023-06-15T01:23:20.363Z,91.80
2023-06-15T01:25:50.279Z,91.80
2023-06-15T01:28:21.661Z,91.80
2023-06-15T01:30:52.134Z,91.80
2023-06-15T01:33:19.611Z,91.80
2023-06-15T01:35:46.665Z,91.80
2023-06-15T01:38:15.165Z,91.90
2023-06-15T01:40:48.089Z,92.00
2023-06-15T01:43:18.468Z,92.00
2023-06-15T01:45:48.129Z,92.00
2023-06-15T01:48:15.574Z,92.00
2023-06-15T01:50:43.069Z,92.00
2023-06-15T01:53:10.669Z,92.10
2023-06-15T01:55:37.705Z,92.10
2023-06-15T01:58:04.775Z,92.20
2023-06-15T02:00:32.296Z,92.20
2023-06-15T02:02:59.373Z,92.30
2023-06-15T02:05:26.467Z,92.30
2023-06-15T02:07:53.494Z,92.30
2023-06-15T02:10:20.620Z,92.20
2023-06-15T02:12:47.747Z,92.10
2023-06-15T02:15:20.317Z,92.00
2023-06-15T02:17:47.630Z,92.10
2023-06-15T02:20:17.184Z,92.20
2023-06-15T02:22:45.116Z,92.30
2023-06-15T02:25:13.765Z,92.40
2023-06-15T02:27:40.809Z,92.40
2023-06-15T02:30:08.784Z,92.40
2023-06-15T02:32:38.897Z,92.50
2023-06-15T02:35:10.814Z,92.60
2023-06-15T02:37:39.440Z,92.60
2023-06-15T02:40:08.269Z,92.60
2023-06-15T02:42:36.350Z,92.60
2023-06-15T02:45:04.625Z,92.60
2023-06-15T02:47:32.486Z,92.60
2023-06-15T02:50:01.073Z,92.50
2023-06-15T02:52:33.625Z,92.40
2023-06-15T02:55:02.439Z,92.50
2023-06-15T02:57:29.983Z,92.60
2023-06-15T03:00:15.122Z,92.60
2023-06-15T03:02:49.708Z,92.70
2023-06-15T03:05:19.674Z,92.80
2023-06-15T03:07:52.730Z,92.80
2023-06-15T03:10:34.869Z,92.80
2023-06-15T03:13:02.381Z,92.70
2023-06-15T03:15:29.346Z,92.70
2023-06-15T03:17:57.548Z,92.80
2023-06-15T03:20:33.729Z,92.80
2023-06-15T03:23:02.234Z,92.90
2023-06-15T03:25:32.034Z,92.90
2023-06-15T03:28:00.522Z,92.80
2023-06-15T03:30:30.215Z,92.80
2023-06-15T03:33:01.125Z,92.80
2023-06-15T03:35:29.085Z,93.10
2023-06-15T03:37:56.156Z,92.90
2023-06-15T03:40:23.281Z,92.90
2023-06-15T03:42:50.386Z,93.00
2023-06-15T03:45:19.462Z,93.00
2023-06-15T03:47:50.936Z,93.00
2023-06-15T03:50:18.781Z,93.00
2023-06-15T03:52:46.164Z,93.10
2023-06-15T03:55:14.519Z,93.20
2023-06-15T03:57:42.482Z,93.20
2023-06-15T04:00:10.491Z,93.20
2023-06-15T04:02:40.845Z,93.20
2023-06-15T04:05:11.168Z,93.30
2023-06-15T04:07:38.390Z,93.20
2023-06-15T04:10:07.177Z,93.10
2023-06-15T04:12:34.434Z,93.20
2023-06-15T04:15:01.703Z,93.30
2023-06-15T04:17:28.934Z,93.30
2023-06-15T04:19:56.467Z,93.30
2023-06-15T04:22:24.211Z,93.30
2023-06-15T04:24:52.680Z,93.40
2023-06-15T04:27:20.721Z,93.40
2023-06-15T04:29:51.277Z,93.30
2023-06-15T04:32:18.774Z,93.30
2023-06-15T04:34:46.607Z,93.20
2023-06-15T04:37:18.266Z,93.30
2023-06-15T04:39:46.891Z,93.20
2023-06-15T04:42:14.024Z,93.20
2023-06-15T04:44:41.331Z,93.30
2023-06-15T04:47:09.239Z,93.30
2023-06-15T04:49:36.342Z,93.20
2023-06-15T04:52:06.097Z,93.10
2023-06-15T04:54:37.958Z,93.10
2023-06-15T04:57:10.047Z,93.00
2023-06-15T04:59:40.946Z,93.00
2023-06-15T05:02:09.272Z,93.00
2023-06-15T05:04:39.240Z,93.00
2023-06-15T05:07:07.048Z,92.90
2023-06-15T05:09:39.329Z,92.80
2023-06-15T05:12:11.045Z,92.60
2023-06-15T05:14:38.261Z,92.40
2023-06-15T05:17:07.550Z,92.20
2023-06-15T05:19:34.838Z,91.90
2023-06-15T05:22:03.204Z,91.80
2023-06-15T05:24:34.223Z,91.60
2023-06-15T05:27:02.322Z,91.30
2023-06-15T05:29:30.063Z,91.00
2023-06-15T05:31:57.725Z,90.70
2023-06-15T05:34:27.863Z,90.50
2023-06-15T05:36:57.857Z,90.20
2023-06-15T05:39:38.705Z,90.00
2023-06-15T05:42:06.421Z,89.40
2023-06-15T05:44:35.316Z,88.50
2023-06-15T05:47:02.477Z,87.50
2023-06-15T05:49:29.589Z,86.80
2023-06-15T05:51:56.905Z,86.80
2023-06-15T05:54:26.998Z,86.70
2023-06-15T05:56:55.831Z,87.00
2023-06-15T05:59:32.735Z,87.30
2023-06-15T06:02:02.877Z,87.70
2023-06-15T06:04:32.186Z,87.00
2023-06-15T06:06:59.491Z,86.20
2023-06-15T06:09:28.381Z,86.20
2023-06-15T06:11:56.525Z,85.60
2023-06-15T06:14:23.544Z,86.50
2023-06-15T06:16:50.672Z,86.40
2023-06-15T06:19:17.730Z,86.50
2023-06-15T06:21:44.942Z,86.10
2023-06-15T06:24:12.293Z,85.30
2023-06-15T06:26:39.390Z,84.90
2023-06-15T06:29:06.389Z,84.60
2023-06-15T06:31:33.756Z,83.70
2023-06-15T06:34:00.939Z,83.50
2023-06-15T06:36:28.524Z,81.50
2023-06-15T06:39:02.803Z,82.00
2023-06-15T06:41:30.626Z,82.10
2023-06-15T06:43:58.175Z,82.00
2023-06-15T06:46:25.262Z,80.20
2023-06-15T06:48:53.134Z,80.40
2023-06-15T06:51:20.437Z,81.30
2023-06-15T06:53:48.262Z,81.10
2023-06-15T06:56:15.667Z,80.50
2023-06-15T06:58:42.797Z,79.70
2023-06-15T07:01:09.830Z,78.00
2023-06-15T07:03:38.981Z,77.00
2023-06-15T07:06:06.331Z,76.90
2023-06-15T07:08:34.820Z,77.00
2023-06-15T07:11:02.797Z,75.40
2023-06-15T07:13:29.842Z,76.00
2023-06-15T07:15:59.188Z,75.30
2023-06-15T07:18:26.897Z,73.60
2023-06-15T07:20:57.356Z,73.10
2023-06-15T07:23:25.202Z,73.50
2023-06-15T07:25:53.495Z,73.10
2023-06-15T07:28:21.056Z,72.90
2023-06-15T07:30:51.821Z,73.80
2023-06-15T07:33:19.373Z,72.70
2023-06-15T07:35:46.722Z,71.50
2023-06-15T07:38:15.746Z,71.30
2023-06-15T07:40:43.080Z,70.30
2023-06-15T07:43:10.688Z,70.60
2023-06-15T07:45:37.899Z,70.00
2023-06-15T07:48:06.030Z,69.50
2023-06-15T07:50:33.352Z,69.30
2023-06-15T07:53:00.676Z,69.00
2023-06-15T07:55:27.745Z,69.00
2023-06-15T07:57:54.812Z,68.80
2023-06-15T08:00:22.603Z,69.60
2023-06-15T08:02:59.696Z,67.80
2023-06-15T08:05:26.845Z,67.80
2023-06-15T08:07:53.958Z,67.90
2023-06-15T08:10:21.158Z,65.60
2023-06-15T08:12:48.163Z,66.20
2023-06-15T08:15:15.759Z,68.20
2023-06-15T08:17:42.719Z,66.30
2023-06-15T08:20:10.673Z,67.10
2023-06-15T08:22:37.830Z,64.90
2023-06-15T08:25:05.567Z,63.70
2023-06-15T08:27:32.463Z,63.30
2023-06-15T08:30:00.002Z,65.70
2023-06-15T08:32:27.277Z,65.20
2023-06-15T08:34:54.313Z,64.10
2023-06-15T08:37:21.288Z,64.70
2023-06-15T08:39:48.828Z,64.40
2023-06-15T08:42:18.495Z,64.40
2023-06-15T08:44:49.049Z,62.90
2023-06-15T08:47:16.080Z,60.50
2023-06-15T08:49:44.342Z,61.20
2023-06-15T08:52:14.137Z,62.90
2023-06-15T08:54:43.719Z,61.40
2023-06-15T08:57:11.034Z,60.10
2023-06-15T08:59:38.346Z,59.40
2023-06-15T09:02:09.162Z,59.80
2023-06-15T09:04:36.204Z,60.50
2023-06-15T09:07:04.793Z,61.00
2023-06-15T09:09:32.264Z,59.80
2023-06-15T09:11:59.181Z,60.90
2023-06-15T09:14:26.214Z,60.50
2023-06-15T09:16:53.397Z,60.50
2023-06-15T09:19:20.973Z,59.70
2023-06-15T09:21:52.613Z,59.50
2023-06-15T09:24:23.203Z,58.00
2023-06-15T09:26:50.966Z,58.50
2023-06-15T09:29:18.375Z,60.00
2023-06-15T09:31:45.818Z,59.10
2023-06-15T09:34:14.413Z,58.70
2023-06-15T09:36:49.949Z,58.70
2023-06-15T09:39:23.969Z,58.30
2023-06-15T09:42:04.027Z,58.10
2023-06-15T09:44:31.276Z,56.50
2023-06-15T09:47:01.512Z,57.50
2023-06-15T09:49:29.839Z,59.00
2023-06-15T09:51:57.308Z,59.40
2023-06-15T09:54:29.582Z,58.80
2023-06-15T09:56:56.963Z,57.50
2023-06-15T09:59:24.718Z,57.30
2023-06-15T10:01:55.567Z,57.60
2023-06-15T10:04:27.123Z,56.10
2023-06-15T10:07:02.213Z,56.20
2023-06-15T10:09:37.455Z,54.80
2023-06-15T10:12:18.199Z,54.10
2023-06-15T10:15:01.899Z,55.00
2023-06-15T10:17:36.790Z,54.80
2023-06-15T10:20:10.129Z,55.40
2023-06-15T10:22:52.640Z,55.80
2023-06-15T10:25:20.664Z,55.50
2023-06-15T10:27:48.552Z,55.10
2023-06-15T10:30:16.286Z,55.80
2023-06-15T10:33:27.538Z,56.00
2023-06-15T10:36:04.317Z,54.20
2023-06-15T10:38:45.709Z,53.10
2023-06-15T10:41:13.405Z,54.80
2023-06-15T10:43:40.556Z,53.80
2023-06-15T10:46:26.387Z,54.00
2023-06-15T10:48:54.855Z,53.60
2023-06-15T10:51:26.309Z,53.00
2023-06-15T10:53:55.443Z,53.60
2023-06-15T10:56:22.529Z,54.40
2023-06-15T10:58:52.655Z,54.20
2023-06-15T11:01:33.298Z,54.10
2023-06-15T11:04:19.719Z,53.80
2023-06-15T11:06:58.654Z,53.50
2023-06-15T11:09:35.941Z,52.20
2023-06-15T11:12:03.138Z,51.80
2023-06-15T11:14:32.945Z,51.90
2023-06-15T11:17:07.173Z,54.20
2023-06-15T11:19:43.548Z,54.30
2023-06-15T11:22:12.917Z,55.10
2023-06-15T11:24:40.957Z,51.50
2023-06-15T11:27:11.444Z,50.80
2023-06-15T11:29:42.484Z,52.50
2023-06-15T11:32:11.046Z,53.00
2023-06-15T11:34:39.416Z,50.60
2023-06-15T11:37:08.034Z,51.70
2023-06-15T11:39:35.043Z,52.50
2023-06-15T11:42:02.187Z,53.10
2023-06-15T11:44:29.313Z,52.70
2023-06-15T11:46:57.753Z,50.70
2023-06-15T11:49:25.082Z,51.90
2023-06-15T11:51:55.326Z,52.20
2023-06-15T11:54:45.168Z,52.00
2023-06-15T11:57:17.373Z,49.80
2023-06-15T11:59:44.402Z,49.70
2023-06-15T12:02:14.208Z,50.90
2023-06-15T12:04:41.644Z,52.10
2023-06-15T12:07:09.872Z,52.30
2023-06-15T12:09:37.916Z,51.40
2023-06-15T12:12:05.598Z,51.80
2023-06-15T12:14:32.606Z,50.50
2023-06-15T12:16:59.686Z,51.20
2023-06-15T12:19:27.815Z,51.90
2023-06-15T12:21:59.608Z,51.10
2023-06-15T12:24:26.696Z,51.20
2023-06-15T12:26:59.430Z,50.20
2023-06-15T12:29:26.977Z,48.90
2023-06-15T12:31:55.895Z,50.00
2023-06-15T12:34:27.672Z,49.60
2023-06-15T12:36:56.386Z,50.60
2023-06-15T12:39:29.119Z,50.90
2023-06-15T12:42:01.763Z,52.30
2023-06-15T12:44:30.640Z,51.10
2023-06-15T12:46:57.590Z,50.70
2023-06-15T12:49:24.587Z,50.60
2023-06-15T12:51:53.308Z,49.80
2023-06-15T12:54:23.795Z,48.70
2023-06-15T12:56:51.605Z,49.60
2023-06-15T12:59:18.665Z,49.60
2023-06-15T13:01:45.678Z,49.70
2023-06-15T13:04:13.314Z,48.50
2023-06-15T13:06:40.378Z,46.80
2023-06-15T13:09:07.791Z,48.10
2023-06-15T13:11:34.728Z,48.70
2023-06-15T13:14:02.106Z,49.50
2023-06-15T13:16:29.097Z,47.20
2023-06-15T13:18:56.149Z,47.80
2023-06-15T13:21:23.309Z,47.00
2023-06-15T13:23:50.461Z,46.90
2023-06-15T13:26:17.466Z,46.80
2023-06-15T13:28:44.753Z,46.20
2023-06-15T13:31:11.659Z,46.80
2023-06-15T13:33:40.163Z,48.10
2023-06-15T13:36:07.232Z,45.30
2023-06-15T13:38:34.409Z,47.20
2023-06-15T13:41:01.590Z,48.10
2023-06-15T13:43:28.598Z,48.00
2023-06-15T13:45:55.774Z,48.10
2023-06-15T13:48:23.346Z,48.20
2023-06-15T13:50:50.555Z,49.10
2023-06-15T13:53:17.572Z,47.60
2023-06-15T13:55:44.808Z,49.30
2023-06-15T13:58:12.048Z,48.50
2023-06-15T14:00:39.684Z,49.90
2023-06-15T14:03:07.754Z,49.00
2023-06-15T14:05:35.203Z,49.30
2023-06-15T14:08:02.757Z,47.60
2023-06-15T14:10:29.778Z,47.80
2023-06-15T14:12:57.676Z,48.00
2023-06-15T14:15:25.129Z,48.50
2023-06-15T14:17:52.456Z,48.60
2023-06-15T14:20:19.761Z,48.30
2023-06-15T14:22:47.230Z,48.80
2023-06-15T14:25:15.852Z,49.20
2023-06-15T14:27:47.020Z,49.10
2023-06-15T14:30:16.232Z,49.20
2023-06-15T14:32:43.457Z,49.00
2023-06-15T14:35:11.532Z,48.80
2023-06-15T14:37:38.524Z,47.30
2023-06-15T14:40:06.758Z,47.60
2023-06-15T14:42:34.593Z,48.40
2023-06-15T14:45:02.415Z,47.10
2023-06-15T14:47:29.412Z,47.20
2023-06-15T14:49:56.727Z,46.60
2023-06-15T14:52:23.740Z,47.00
2023-06-15T14:54:50.856Z,47.10
2023-06-15T14:57:17.912Z,45.40
2023-06-15T14:59:45.192Z,45.90
2023-06-15T15:02:12.241Z,46.40
2023-06-15T15:04:39.733Z,46.10
2023-06-15T15:07:06.687Z,46.40
2023-06-15T15:09:33.965Z,45.50
2023-06-15T15:12:01.423Z,45.90
2023-06-15T15:14:28.412Z,45.20
2023-06-15T15:16:55.714Z,45.10
2023-06-15T15:19:23.044Z,46.50
2023-06-15T15:21:50.273Z,46.50
2023-06-15T15:24:17.698Z,46.30
2023-06-15T15:26:44.792Z,45.80
2023-06-15T15:29:11.974Z,45.60
2023-06-15T15:31:39.000Z,46.00
2023-06-15T15:34:06.326Z,47.30
2023-06-15T15:36:33.559Z,47.10
2023-06-15T15:39:02.117Z,46.30
2023-06-15T15:41:29.066Z,47.00
2023-06-15T15:43:56.288Z,46.00
2023-06-15T15:46:23.389Z,46.30
2023-06-15T15:48:50.567Z,46.70
2023-06-15T15:51:17.836Z,46.50
2023-06-15T15:53:44.814Z,46.00
2023-06-15T15:56:12.086Z,46.70
2023-06-15T15:58:39.089Z,45.10
2023-06-15T16:01:17.319Z,44.60
2023-06-15T16:03:44.555Z,44.90
2023-06-15T16:06:11.612Z,45.10
2023-06-15T16:08:38.574Z,45.50
2023-06-15T16:11:05.748Z,45.20
2023-06-15T16:13:32.750Z,45.70
2023-06-15T16:16:14.976Z,46.20
2023-06-15T16:18:46.854Z,45.30
2023-06-15T16:21:14.058Z,46.20
2023-06-15T16:23:41.063Z,47.20
2023-06-15T16:26:08.016Z,46.70
2023-06-15T16:28:35.350Z,46.00
2023-06-15T16:31:02.421Z,46.20
2023-06-15T16:33:29.453Z,45.90
2023-06-15T16:35:56.764Z,46.20
2023-06-15T16:38:23.749Z,46.80
2023-06-15T16:40:50.816Z,46.60
2023-06-15T16:43:17.847Z,47.20
2023-06-15T16:45:44.852Z,46.80
2023-06-15T16:48:12.075Z,47.30
2023-06-15T16:50:39.240Z,47.90
2023-06-15T16:53:06.308Z,47.10
2023-06-15T16:55:33.269Z,46.60
2023-06-15T16:58:01.537Z,47.10
2023-06-15T17:00:29.554Z,47.40
2023-06-15T17:02:56.899Z,47.00
2023-06-15T17:05:24.058Z,46.50
2023-06-15T17:07:51.227Z,47.60
2023-06-15T17:10:19.099Z,48.30
2023-06-15T17:12:46.552Z,48.90
2023-06-15T17:15:13.493Z,49.10
2023-06-15T17:17:41.403Z,49.70
2023-06-15T17:20:09.058Z,50.00
2023-06-15T17:22:36.362Z,50.20
2023-06-15T17:25:03.482Z,50.80
2023-06-15T17:27:30.536Z,51.10
2023-06-15T17:29:57.515Z,51.20
2023-06-15T17:32:25.977Z,51.60
2023-06-15T17:34:53.044Z,52.10
2023-06-15T17:37:22.015Z,52.30
2023-06-15T17:39:49.128Z,52.80
2023-06-15T17:42:16.429Z,53.40
2023-06-15T17:44:43.450Z,53.50
2023-06-15T17:47:10.457Z,53.50
2023-06-15T17:49:37.503Z,53.50
2023-06-15T17:52:08.012Z,53.80
2023-06-15T17:54:35.120Z,54.00
2023-06-15T17:57:02.393Z,54.40
2023-06-15T17:59:29.521Z,54.60
2023-06-15T18:01:56.510Z,54.40
2023-06-15T18:04:23.622Z,54.50
2023-06-15T18:06:50.781Z,54.80
2023-06-15T18:09:17.762Z,55.00
2023-06-15T18:11:45.026Z,54.80
2023-06-15T18:14:12.139Z,55.10
2023-06-15T18:16:39.296Z,56.00
2023-06-15T18:19:06.700Z,56.50
2023-06-15T18:21:33.603Z,56.70
2023-06-15T18:24:00.723Z,57.10
2023-06-15T18:26:28.111Z,57.10
2023-06-15T18:28:56.328Z,57.60
2023-06-15T18:31:23.374Z,58.10
2023-06-15T18:33:50.671Z,59.20
2023-06-15T18:36:17.614Z,60.50
2023-06-15T18:38:45.796Z,62.00
2023-06-15T18:41:12.816Z,62.90
2023-06-15T18:43:42.846Z,63.80
2023-06-15T18:46:09.921Z,64.50
2023-06-15T18:48:37.420Z,64.00
2023-06-15T18:51:05.015Z,62.90
2023-06-15T18:53:32.017Z,62.80
2023-06-15T18:55:59.788Z,63.60
2023-06-15T18:58:26.945Z,64.40
2023-06-15T19:00:53.907Z,65.10
2023-06-15T19:03:21.232Z,65.80
2023-06-15T19:05:51.290Z,66.50
2023-06-15T19:08:19.905Z,67.30
2023-06-15T19:10:47.113Z,68.10
2023-06-15T19:13:14.112Z,69.20
2023-06-15T19:15:41.225Z,69.60
2023-06-15T19:18:08.289Z,69.10
2023-06-15T19:20:35.312Z,69.10
2023-06-15T19:23:02.409Z,69.30
2023-06-15T19:25:29.420Z,69.50
2023-06-15T19:27:56.370Z,69.60
2023-06-15T19:30:23.288Z,69.40
2023-06-15T19:32:50.528Z,69.40
2023-06-15T19:35:18.067Z,69.50
2023-06-15T19:37:45.270Z,69.90
2023-06-15T19:40:12.981Z,70.30
2023-06-15T19:42:41.740Z,71.00
2023-06-15T19:45:10.008Z,71.10
2023-06-15T19:47:40.737Z,71.20
2023-06-15T19:50:08.388Z,71.40
2023-06-15T19:52:35.440Z,71.40
2023-06-15T19:55:03.093Z,71.20
2023-06-15T19:57:30.090Z,71.10
2023-06-15T19:59:57.696Z,71.30
2023-06-15T20:02:24.854Z,71.70
2023-06-15T20:04:51.979Z,71.80
2023-06-15T20:07:18.972Z,72.20
2023-06-15T20:09:46.531Z,72.70
2023-06-15T20:12:13.593Z,73.00
2023-06-15T20:14:40.667Z,73.30
2023-06-15T20:17:07.673Z,73.50
2023-06-15T20:19:34.652Z,73.80
2023-06-15T20:22:03.663Z,73.90
2023-06-15T20:24:31.091Z,74.00
2023-06-15T20:26:58.206Z,74.20
2023-06-15T20:29:25.519Z,74.50
2023-06-15T20:31:52.594Z,74.70
2023-06-15T20:34:19.574Z,75.10
2023-06-15T20:36:47.188Z,75.80
2023-06-15T20:39:16.092Z,76.20
2023-06-15T20:41:43.027Z,76.50
2023-06-15T20:44:10.169Z,76.90
2023-06-15T20:46:37.421Z,77.10
2023-06-15T20:49:04.556Z,77.20
2023-06-15T20:51:31.650Z,77.40
2023-06-15T20:53:58.700Z,77.60
2023-06-15T20:56:25.655Z,77.80
2023-06-15T20:58:54.496Z,77.90
2023-06-15T21:01:22.517Z,77.80
2023-06-15T21:03:49.628Z,77.60
2023-06-15T21:06:16.648Z,77.40
2023-06-15T21:08:44.323Z,77.30
2023-06-15T21:11:11.490Z,77.60
2023-06-15T21:13:38.472Z,77.90
2023-06-15T21:16:08.711Z,77.80
2023-06-15T21:18:36.360Z,78.00
2023-06-15T21:21:04.688Z,78.10
2023-06-15T21:23:34.198Z,78.30
2023-06-15T21:26:01.806Z,78.80
2023-06-15T21:28:28.880Z,79.10
2023-06-15T21:30:56.059Z,79.50
2023-06-15T21:33:23.101Z,80.00
2023-06-15T21:35:50.154Z,80.20
2023-06-15T21:38:18.651Z,80.20
2023-06-15T21:40:45.657Z,80.10
2023-06-15T21:43:12.710Z,79.90
2023-06-15T21:45:40.044Z,80.00
2023-06-15T21:48:07.159Z,80.20
2023-06-15T21:50:34.259Z,80.50
2023-06-15T21:53:01.576Z,80.50
2023-06-15T21:55:29.638Z,80.30
2023-06-15T21:57:57.575Z,79.90
2023-06-15T22:00:25.243Z,79.70
2023-06-15T22:02:52.357Z,79.30
2023-06-15T22:05:21.199Z,79.40
2023-06-15T22:07:48.475Z,79.90
2023-06-15T22:10:16.590Z,80.40
2023-06-15T22:12:44.324Z,80.80
2023-06-15T22:15:12.066Z,80.80
2023-06-15T22:17:44.514Z,80.90
2023-06-15T22:20:15.243Z,81.30
2023-06-15T22:22:42.546Z,81.60
2023-06-15T22:25:10.802Z,81.80
2023-06-15T22:27:38.097Z,82.30
2023-06-15T22:30:05.885Z,82.40
2023-06-15T22:32:32.857Z,82.60
2023-06-15T22:34:59.976Z,82.80
2023-06-15T22:37:26.982Z,83.00
2023-06-15T22:39:53.902Z,83.10
2023-06-15T22:42:21.026Z,83.10
2023-06-15T22:44:48.560Z,83.30
2023-06-15T22:47:18.971Z,83.60
2023-06-15T22:49:46.287Z,83.90
2023-06-15T22:52:14.232Z,84.00
2023-06-15T22:54:48.438Z,84.20
2023-06-15T22:57:16.183Z,84.60
2023-06-15T22:59:46.728Z,84.80
2023-06-15T23:02:14.585Z,84.90
2023-06-15T23:04:41.677Z,84.80
2023-06-15T23:07:08.870Z,84.90
2023-06-15T23:09:36.861Z,85.10
2023-06-15T23:12:04.850Z,85.20
2023-06-15T23:14:33.031Z,85.30
2023-06-15T23:17:03.202Z,85.60
2023-06-15T23:19:31.910Z,86.00
2023-06-15T23:21:59.569Z,86.40
2023-06-15T23:24:26.925Z,86.60
2023-06-15T23:26:56.598Z,86.90
2023-06-15T23:29:26.633Z,86.90
2023-06-15T23:31:53.646Z,87.10
2023-06-15T23:34:21.217Z,87.10
2023-06-15T23:36:48.298Z,87.30
2023-06-15T23:39:15.369Z,87.40
2023-06-15T23:41:42.691Z,87.50
2023-06-15T23:44:09.718Z,87.50
2023-06-15T23:46:37.003Z,87.50
2023-06-15T23:49:04.409Z,87.50
2023-06-15T23:51:31.450Z,87.30
2023-06-15T23:53:58.503Z,87.10
2023-06-15T23:56:26.746Z,86.80
2023-06-15T23:58:53.799Z,86.70
